createdAt,value
2018-06-28T00:00:51.776Z,0.00
2018-06-28T00:01:51.759Z,0.00
2018-06-28T00:02:51.737Z,0.00
2018-06-28T00:03:51.719Z,0.00
2018-06-28T00:04:51.708Z,0.00
2018-06-28T00:05:51.692Z,0.00
2018-06-28T00:06:51.668Z,0.00
2018-06-28T00:07:51.659Z,0.00
2018-06-28T00:08:51.639Z,0.00
2018-06-28T00:09:51.627Z,0.00
2018-06-28T00:10:51.601Z,0.00
2018-06-28T00:11:51.585Z,0.00
2018-06-28T00:12:51.569Z,0.00
2018-06-28T00:13:51.552Z,0.00
2018-06-28T00:14:51.547Z,0.00
2018-06-28T00:15:51.518Z,0.00
2018-06-28T00:16:51.496Z,0.00
2018-06-28T00:17:51.477Z,0.00
2018-06-28T00:18:51.465Z,0.00
2018-06-28T00:19:51.442Z,0.00
2018-06-28T00:20:51.428Z,0.00
2018-06-28T00:21:51.417Z,0.00
2018-06-28T00:22:51.393Z,0.00
2018-06-28T00:23:51.378Z,0.00
2018-06-28T00:24:51.355Z,0.00
2018-06-28T00:25:51.339Z,0.00
2018-06-28T00:26:51.327Z,0.00
2018-06-28T00:27:51.304Z,0.00
2018-06-28T00:28:51.285Z,0.00
2018-06-28T00:29:51.273Z,0.00
2018-06-28T00:30:51.250Z,0.00
2018-06-28T00:31:51.234Z,0.00
2018-06-28T00:32:51.215Z,0.00
2018-06-28T00:33:51.205Z,0.00
2018-06-28T00:34:51.190Z,0.00
2018-06-28T00:35:51.177Z,0.00
2018-06-28T00:36:51.147Z,0.00
2018-06-28T00:37:51.138Z,0.00
2018-06-28T00:38:51.117Z,0.00
2018-06-28T00:39:51.096Z,0.00
2018-06-28T00:40:51.075Z,0.00
2018-06-28T00:41:51.065Z,0.00
2018-06-28T00:42:51.046Z,0.00
2018-06-28T00:43:51.030Z,0.00
2018-06-28T00:44:51.018Z,0.00
2018-06-28T00:45:50.988Z,0.00
2018-06-28T00:46:50.975Z,0.00
2018-06-28T00:47:50.956Z,0.00
2018-06-28T00:48:50.940Z,0.00
2018-06-28T00:49:50.918Z,0.00
2018-06-28T00:50:50.905Z,0.00
2018-06-28T00:51:50.883Z,0.00
2018-06-28T00:52:50.865Z,0.00
2018-06-28T00:53:50.851Z,0.00
2018-06-28T00:54:50.835Z,0.00
2018-06-28T00:55:50.816Z,0.00
2018-06-28T00:56:50.803Z,0.00
2018-06-28T00:57:50.774Z,0.00
2018-06-28T00:58:50.755Z,0.00
2018-06-28T00:59:50.739Z,0.00
2018-06-28T01:00:50.720Z,0.00
2018-06-28T01:01:50.711Z,0.00
2018-06-28T01:02:50.688Z,0.00
2018-06-28T01:03:50.671Z,0.00
2018-06-28T01:04:50.648Z,0.00
2018-06-28T01:05:50.639Z,0.00
2018-06-28T01:06:50.613Z,0.00
2018-06-28T01:07:50.604Z,0.00
2018-06-28T01:08:50.582Z,0.00
2018-06-28T01:09:50.568Z,0.00
2018-06-28T01:10:50.543Z,0.00
2018-06-28T01:11:50.530Z,0.00
2018-06-28T01:12:50.511Z,0.00
2018-06-28T01:13:50.489Z,0.00
2018-06-28T01:14:50.471Z,0.00
2018-06-28T01:15:50.461Z,0.00
2018-06-28T01:16:50.441Z,0.00
2018-06-28T01:17:50.422Z,0.00
2018-06-28T01:18:50.415Z,0.00
2018-06-28T01:19:50.384Z,0.00
2018-06-28T01:20:50.372Z,0.00
2018-06-28T01:21:50.349Z,0.00
2018-06-28T01:22:50.330Z,0.00
2018-06-28T01:23:50.314Z,0.00
2018-06-28T01:24:50.295Z,0.00
2018-06-28T01:25:50.278Z,0.00
2018-06-28T01:26:50.267Z,0.00
2018-06-28T01:27:50.246Z,0.00
2018-06-28T01:28:50.227Z,0.00
2018-06-28T01:29:50.211Z,0.00
2018-06-28T01:30:50.199Z,0.00
2018-06-28T01:31:50.169Z,0.00
2018-06-28T01:32:50.152Z,0.00
2018-06-28T01:33:50.144Z,0.00
2018-06-28T01:34:50.118Z,0.00
2018-06-28T01:35:50.103Z,0.00
2018-06-28T01:36:50.086Z,0.00
2018-06-28T01:37:50.065Z,0.00
2018-06-28T01:38:50.043Z,0.00
2018-06-28T01:39:50.026Z,0.00
2018-06-28T01:40:50.008Z,0.00
2018-06-28T01:41:49.988Z,0.00
2018-06-28T01:42:49.976Z,0.00
2018-06-28T01:43:49.959Z,0.00
2018-06-28T01:44:49.943Z,0.00
2018-06-28T01:45:49.918Z,0.00
2018-06-28T01:46:49.951Z,0.00
2018-06-28T01:47:49.929Z,0.00
2018-06-28T01:48:49.867Z,0.00
2018-06-28T01:49:49.848Z,0.00
2018-06-28T01:50:49.825Z,0.00
2018-06-28T01:51:49.812Z,0.00
2018-06-28T01:52:49.796Z,0.00
2018-06-28T01:53:49.774Z,0.00
2018-06-28T01:54:49.759Z,0.00
2018-06-28T01:55:49.742Z,0.00
2018-06-28T01:56:49.716Z,0.00
2018-06-28T01:57:49.701Z,0.00
2018-06-28T01:58:49.685Z,0.00
2018-06-28T01:59:49.672Z,0.00
2018-06-28T02:00:49.652Z,0.00
2018-06-28T02:01:49.628Z,0.00
2018-06-28T02:02:49.624Z,0.00
2018-06-28T02:03:49.598Z,0.00
2018-06-28T02:04:49.578Z,0.00
2018-06-28T02:05:49.560Z,0.00
2018-06-28T02:06:49.534Z,0.00
2018-06-28T02:07:49.518Z,0.00
2018-06-28T02:08:49.502Z,0.00
2018-06-28T02:09:49.478Z,0.00
2018-06-28T02:10:49.466Z,0.00
2018-06-28T02:11:49.443Z,0.00
2018-06-28T02:12:49.435Z,0.00
2018-06-28T02:13:49.408Z,0.00
2018-06-28T02:14:49.390Z,0.00
2018-06-28T02:15:49.376Z,0.00
2018-06-28T02:16:49.353Z,0.00
2018-06-28T02:17:49.334Z,0.00
2018-06-28T02:18:49.316Z,0.00
2018-06-28T02:19:49.302Z,0.00
2018-06-28T02:20:49.279Z,0.00
2018-06-28T02:21:49.263Z,0.00
2018-06-28T02:22:49.246Z,0.00
2018-06-28T02:23:49.227Z,0.00
2018-06-28T02:24:49.208Z,0.00
2018-06-28T02:25:49.189Z,0.00
2018-06-28T02:26:49.169Z,0.00
2018-06-28T02:27:49.154Z,0.00
2018-06-28T02:28:49.135Z,0.00
2018-06-28T02:29:49.120Z,0.00
2018-06-28T02:30:49.100Z,0.00
2018-06-28T02:31:49.081Z,0.00
2018-06-28T02:32:49.058Z,0.00
2018-06-28T02:33:49.044Z,0.00
2018-06-28T02:34:49.023Z,0.00
2018-06-28T02:35:49.007Z,0.00
2018-06-28T02:36:48.982Z,0.00
2018-06-28T02:37:48.974Z,0.00
2018-06-28T02:38:48.953Z,0.00
2018-06-28T02:39:48.931Z,4.00
2018-06-28T02:40:48.908Z,4.00
2018-06-28T02:41:48.898Z,4.00
2018-06-28T02:42:48.874Z,4.00
2018-06-28T02:43:48.864Z,0.00
2018-06-28T02:44:48.838Z,4.00
2018-06-28T02:45:48.816Z,4.00
2018-06-28T02:46:48.804Z,8.00
2018-06-28T02:47:48.785Z,4.00
2018-06-28T02:48:48.766Z,8.00
2018-06-28T02:49:48.739Z,8.00
2018-06-28T02:50:48.726Z,8.00
2018-06-28T02:51:48.710Z,8.00
2018-06-28T02:52:48.692Z,12.00
2018-06-28T02:53:48.672Z,16.00
2018-06-28T02:54:48.653Z,16.00
2018-06-28T02:55:48.633Z,16.00
2018-06-28T02:56:48.618Z,20.00
2018-06-28T02:57:48.596Z,28.00
2018-06-28T02:58:48.580Z,28.00
2018-06-28T02:59:48.560Z,32.00
2018-06-28T03:00:48.545Z,36.00
2018-06-28T03:01:48.524Z,40.00
2018-06-28T03:02:48.501Z,44.00
2018-06-28T03:03:48.488Z,52.00
2018-06-28T03:04:48.462Z,56.00
2018-06-28T03:05:48.447Z,64.00
2018-06-28T03:06:48.469Z,72.00
2018-06-28T03:07:48.405Z,80.00
2018-06-28T03:08:48.396Z,88.00
2018-06-28T03:09:48.373Z,96.00
2018-06-28T03:10:48.359Z,104.00
2018-06-28T03:11:48.332Z,116.00
2018-06-28T03:12:48.316Z,128.00
2018-06-28T03:13:48.299Z,140.00
2018-06-28T03:14:48.275Z,156.00
2018-06-28T03:15:48.263Z,168.00
2018-06-28T03:16:48.245Z,184.00
2018-06-28T03:17:48.218Z,200.00
2018-06-28T03:18:48.202Z,216.00
2018-06-28T03:19:48.191Z,236.00
2018-06-28T03:20:48.163Z,252.00
2018-06-28T03:21:48.145Z,276.00
2018-06-28T03:22:48.125Z,296.00
2018-06-28T03:23:48.112Z,316.00
2018-06-28T03:24:48.093Z,336.00
2018-06-28T03:25:48.072Z,360.00
2018-06-28T03:26:48.072Z,380.00
2018-06-28T03:27:48.030Z,400.00
2018-06-28T03:28:48.014Z,420.00
2018-06-28T03:29:47.995Z,440.00
2018-06-28T03:30:47.988Z,460.00
2018-06-28T03:31:47.963Z,484.00
2018-06-28T03:32:47.940Z,504.00
2018-06-28T03:33:47.921Z,532.00
2018-06-28T03:34:47.901Z,556.00
2018-06-28T03:35:47.883Z,576.00
2018-06-28T03:36:47.867Z,596.00
2018-06-28T03:37:47.914Z,620.00
2018-06-28T03:38:47.831Z,640.00
2018-06-28T03:39:47.811Z,668.00
2018-06-28T03:40:47.796Z,696.00
2018-06-28T03:41:47.774Z,728.00
2018-06-28T03:42:47.760Z,768.00
2018-06-28T03:43:47.735Z,808.00
2018-06-28T03:44:47.716Z,856.00
2018-06-28T03:45:47.762Z,900.00
2018-06-28T03:46:47.684Z,936.00
2018-06-28T03:47:47.663Z,976.00
2018-06-28T03:48:47.644Z,1016.00
2018-06-28T03:49:47.628Z,1052.00
2018-06-28T03:50:47.612Z,1092.00
2018-06-28T03:51:47.586Z,1136.00
2018-06-28T03:52:47.570Z,1176.00
2018-06-28T03:53:47.551Z,1220.00
2018-06-28T03:54:47.532Z,1260.00
2018-06-28T03:55:47.509Z,1296.00
2018-06-28T03:56:47.490Z,1328.00
2018-06-28T03:57:47.471Z,1368.00
2018-06-28T03:58:47.457Z,1404.00
2018-06-28T03:59:47.439Z,1444.00
2018-06-28T04:00:47.416Z,1480.00
2018-06-28T04:01:47.404Z,1516.00
2018-06-28T04:02:47.381Z,1552.00
2018-06-28T04:03:47.365Z,1592.00
2018-06-28T04:04:47.343Z,1624.00
2018-06-28T04:05:47.327Z,1656.00
2018-06-28T04:06:47.311Z,1692.00
2018-06-28T04:07:47.291Z,1728.00
2018-06-28T04:08:47.273Z,1756.00
2018-06-28T04:09:47.255Z,1784.00
2018-06-28T04:10:47.241Z,1808.00
2018-06-28T04:11:47.209Z,1832.00
2018-06-28T04:12:47.193Z,1860.00
2018-06-28T04:13:47.179Z,1884.00
2018-06-28T04:14:47.160Z,1908.00
2018-06-28T04:15:47.148Z,1928.00
2018-06-28T04:16:47.135Z,1948.00
2018-06-28T04:17:47.103Z,1960.00
2018-06-28T04:18:47.095Z,1976.00
2018-06-28T04:19:47.075Z,1992.00
2018-06-28T04:20:47.048Z,2004.00
2018-06-28T04:21:47.029Z,2024.00
2018-06-28T04:22:47.014Z,2048.00
2018-06-28T04:23:46.996Z,2068.00
2018-06-28T04:24:46.980Z,2084.00
2018-06-28T04:25:46.961Z,2104.00
2018-06-28T04:26:46.945Z,2120.00
2018-06-28T04:27:46.978Z,2140.00
2018-06-28T04:28:46.904Z,2164.00
2018-06-28T04:29:46.887Z,2192.00
2018-06-28T04:30:46.864Z,2216.00
2018-06-28T04:31:46.856Z,2240.00
2018-06-28T04:32:46.835Z,2264.00
2018-06-28T04:33:46.815Z,2292.00
2018-06-28T04:34:46.793Z,2312.00
2018-06-28T04:35:46.774Z,2340.00
2018-06-28T04:36:46.765Z,2364.00
2018-06-28T04:37:46.743Z,2388.00
2018-06-28T04:38:46.721Z,2408.00
2018-06-28T04:39:46.717Z,2436.00
2018-06-28T04:40:46.688Z,2460.00
2018-06-28T04:41:46.674Z,2496.00
2018-06-28T04:42:46.649Z,2524.00
2018-06-28T04:43:46.633Z,2552.00
2018-06-28T04:44:46.621Z,2588.00
2018-06-28T04:45:46.598Z,2624.00
2018-06-28T04:46:46.582Z,2660.00
2018-06-28T04:47:46.566Z,2700.00
2018-06-28T04:48:46.551Z,2744.00
2018-06-28T04:49:46.530Z,2788.00
2018-06-28T04:50:46.515Z,2828.00
2018-06-28T04:51:46.495Z,2860.00
2018-06-28T04:52:46.474Z,2896.00
2018-06-28T04:53:46.458Z,2936.00
2018-06-28T04:54:46.445Z,2972.00
2018-06-28T04:55:46.432Z,3008.00
2018-06-28T04:56:46.403Z,3044.00
2018-06-28T04:57:46.394Z,3076.00
2018-06-28T04:58:46.371Z,3108.00
2018-06-28T04:59:46.358Z,3148.00
2018-06-28T05:00:46.339Z,3184.00
2018-06-28T05:01:46.317Z,3220.00
2018-06-28T05:02:46.304Z,3252.00
2018-06-28T05:03:46.285Z,3280.00
2018-06-28T05:04:46.269Z,3308.00
2018-06-28T05:05:46.256Z,3336.00
2018-06-28T05:06:46.237Z,3368.00
2018-06-28T05:07:46.215Z,3396.00
2018-06-28T05:08:46.196Z,3428.00
2018-06-28T05:09:46.180Z,3440.00
2018-06-28T05:10:46.174Z,3460.00
2018-06-28T05:11:46.157Z,3476.00
2018-06-28T05:12:46.129Z,3496.00
2018-06-28T05:13:46.114Z,3516.00
2018-06-28T05:14:46.097Z,3544.00
2018-06-28T05:15:46.081Z,3572.00
2018-06-28T05:16:46.064Z,3600.00
2018-06-28T05:17:46.053Z,3644.00
2018-06-28T05:18:46.030Z,3684.00
2018-06-28T05:19:46.015Z,3716.00
2018-06-28T05:20:45.999Z,3736.00
2018-06-28T05:21:45.982Z,3760.00
2018-06-28T05:22:45.970Z,3796.00
2018-06-28T05:23:45.948Z,3836.00
2018-06-28T05:24:45.938Z,3880.00
2018-06-28T05:25:45.925Z,3920.00
2018-06-28T05:26:45.903Z,3968.00
2018-06-28T05:27:45.890Z,3988.00
2018-06-28T05:28:45.873Z,3988.00
2018-06-28T05:29:45.853Z,4008.00
2018-06-28T05:30:45.835Z,4016.00
2018-06-28T05:31:45.825Z,4036.00
2018-06-28T05:32:45.814Z,4040.00
2018-06-28T05:33:45.789Z,4032.00
2018-06-28T05:34:45.778Z,4024.00
2018-06-28T05:35:45.757Z,4012.00
2018-06-28T05:36:45.747Z,4004.00
2018-06-28T05:37:45.728Z,4000.00
2018-06-28T05:38:45.709Z,3996.00
2018-06-28T05:39:45.693Z,3996.00
2018-06-28T05:40:45.684Z,4000.00
2018-06-28T05:41:45.673Z,4016.00
2018-06-28T05:42:45.653Z,4028.00
2018-06-28T05:43:45.633Z,4056.00
2018-06-28T05:44:45.619Z,4084.00
2018-06-28T05:45:45.605Z,4100.00
2018-06-28T05:46:45.592Z,4120.00
2018-06-28T05:47:45.573Z,4132.00
2018-06-28T05:48:45.560Z,4144.00
2018-06-28T05:49:45.544Z,4140.00
2018-06-28T05:50:45.537Z,4144.00
2018-06-28T05:51:45.515Z,4136.00
2018-06-28T05:52:45.502Z,4092.00
2018-06-28T05:53:45.488Z,4144.00
2018-06-28T05:54:45.470Z,4184.00
2018-06-28T05:55:45.458Z,4244.00
2018-06-28T05:56:45.451Z,4292.00
2018-06-28T05:57:45.431Z,4332.00
2018-06-28T05:58:45.455Z,4376.00
2018-06-28T05:59:45.396Z,4416.00
2018-06-28T06:00:45.383Z,4456.00
2018-06-28T06:01:45.367Z,4500.00
2018-06-28T06:02:45.361Z,4540.00
2018-06-28T06:03:45.339Z,4552.00
2018-06-28T06:04:45.326Z,4556.00
2018-06-28T06:05:45.338Z,4572.00
2018-06-28T06:06:45.297Z,4584.00
2018-06-28T06:07:45.284Z,4584.00
2018-06-28T06:08:45.277Z,4604.00
2018-06-28T06:09:45.255Z,4624.00
2018-06-28T06:10:45.245Z,4648.00
2018-06-28T06:11:45.235Z,4672.00
2018-06-28T06:12:45.222Z,4684.00
2018-06-28T06:13:45.206Z,4688.00
2018-06-28T06:14:45.187Z,4720.00
2018-06-28T06:15:45.175Z,4780.00
2018-06-28T06:16:45.159Z,4808.00
2018-06-28T06:17:45.149Z,5156.00
2018-06-28T06:18:45.136Z,5072.00
2018-06-28T06:19:45.126Z,4768.00
2018-06-28T06:20:45.110Z,4752.00
2018-06-28T06:21:45.106Z,4784.00
2018-06-28T06:22:45.087Z,4736.00
2018-06-28T06:23:45.072Z,4700.00
2018-06-28T06:24:45.059Z,4712.00
2018-06-28T06:25:45.046Z,4700.00
2018-06-28T06:26:45.028Z,4832.00
2018-06-28T06:27:45.022Z,5452.00
2018-06-28T06:28:45.012Z,5600.00
2018-06-28T06:29:44.989Z,6076.00
2018-06-28T06:30:44.976Z,5428.00
2018-06-28T06:31:44.966Z,4880.00
2018-06-28T06:32:44.950Z,4812.00
2018-06-28T06:33:44.944Z,4824.00
2018-06-28T06:34:44.924Z,4848.00
2018-06-28T06:35:44.918Z,4872.00
2018-06-28T06:36:44.901Z,4888.00
2018-06-28T06:37:44.895Z,4916.00
2018-06-28T06:38:44.880Z,4932.00
2018-06-28T06:39:44.864Z,4968.00
2018-06-28T06:40:44.847Z,5008.00
2018-06-28T06:41:44.838Z,5060.00
2018-06-28T06:42:44.831Z,5112.00
2018-06-28T06:43:44.813Z,5160.00
2018-06-28T06:44:44.806Z,5224.00
2018-06-28T06:45:44.790Z,5296.00
2018-06-28T06:46:44.784Z,5376.00
2018-06-28T06:47:44.770Z,5432.00
2018-06-28T06:48:44.829Z,5472.00
2018-06-28T06:49:44.745Z,5532.00
2018-06-28T06:50:44.729Z,5576.00
2018-06-28T06:51:44.716Z,5600.00
2018-06-28T06:52:44.705Z,5616.00
2018-06-28T06:53:44.691Z,5600.00
2018-06-28T06:54:44.677Z,5588.00
2018-06-28T06:55:44.667Z,5584.00
2018-06-28T06:56:44.661Z,5596.00
2018-06-28T06:57:44.741Z,5624.00
2018-06-28T06:58:44.638Z,5660.00
2018-06-28T06:59:44.627Z,5680.00
2018-06-28T07:00:44.610Z,5696.00
2018-06-28T07:01:44.604Z,5748.00
2018-06-28T07:02:44.584Z,5820.00
2018-06-28T07:03:44.581Z,5880.00
2018-06-28T07:04:44.562Z,5940.00
2018-06-28T07:05:44.553Z,5996.00
2018-06-28T07:06:44.540Z,6024.00
2018-06-28T07:07:44.536Z,6028.00
2018-06-28T07:08:44.521Z,6048.00
2018-06-28T07:09:44.514Z,6076.00
2018-06-28T07:10:44.502Z,6084.00
2018-06-28T07:11:44.486Z,6080.00
2018-06-28T07:12:44.477Z,6100.00
2018-06-28T07:13:44.467Z,6100.00
2018-06-28T07:14:44.452Z,6108.00
2018-06-28T07:15:44.445Z,6136.00
2018-06-28T07:16:44.429Z,6196.00
2018-06-28T07:17:44.420Z,6528.00
2018-06-28T07:18:44.411Z,6932.00
2018-06-28T07:19:44.398Z,7080.00
2018-06-28T07:20:44.391Z,7256.00
2018-06-28T07:21:44.375Z,7692.00
2018-06-28T07:22:44.424Z,7996.00
2018-06-28T07:23:44.352Z,8048.00
2018-06-28T07:24:44.347Z,8044.00
2018-06-28T07:25:44.336Z,8020.00
2018-06-28T07:26:44.328Z,7688.00
2018-06-28T07:27:44.317Z,7516.00
2018-06-28T07:28:44.374Z,7464.00
2018-06-28T07:29:44.292Z,7536.00
2018-06-28T07:30:44.284Z,7660.00
2018-06-28T07:31:44.278Z,7764.00
2018-06-28T07:32:44.267Z,7948.00
2018-06-28T07:33:44.257Z,8008.00
2018-06-28T07:34:44.251Z,7760.00
2018-06-28T07:35:44.241Z,7564.00
2018-06-28T07:36:44.225Z,7540.00
2018-06-28T07:37:44.222Z,7564.00
2018-06-28T07:38:44.216Z,7532.00
2018-06-28T07:39:44.209Z,7472.00
2018-06-28T07:40:44.193Z,7436.00
2018-06-28T07:41:44.186Z,7468.00
2018-06-28T07:42:44.180Z,7552.00
2018-06-28T07:43:44.171Z,7656.00
2018-06-28T07:44:44.164Z,7700.00
2018-06-28T07:45:44.159Z,7776.00
2018-06-28T07:46:44.154Z,7784.00
2018-06-28T07:47:44.149Z,7664.00
2018-06-28T07:48:44.136Z,7636.00
2018-06-28T07:49:44.135Z,7692.00
2018-06-28T07:50:44.126Z,7748.00
2018-06-28T07:51:44.110Z,7772.00
2018-06-28T07:52:44.114Z,7796.00
2018-06-28T07:53:44.104Z,7808.00
2018-06-28T07:54:44.095Z,7824.00
2018-06-28T07:55:44.094Z,7852.00
2018-06-28T07:56:44.086Z,7872.00
2018-06-28T07:57:44.086Z,7932.00
2018-06-28T07:58:44.078Z,7924.00
2018-06-28T07:59:44.066Z,7968.00
2018-06-28T08:00:44.059Z,7980.00
2018-06-28T08:01:44.059Z,8000.00
2018-06-28T08:02:44.152Z,8088.00
2018-06-28T08:03:44.044Z,8220.00
2018-06-28T08:04:44.048Z,8348.00
2018-06-28T08:05:44.039Z,8432.00
2018-06-28T08:06:44.029Z,8544.00
2018-06-28T08:07:44.028Z,8644.00
2018-06-28T08:08:44.021Z,8784.00
2018-06-28T08:09:44.066Z,8836.00
2018-06-28T08:10:44.014Z,8896.00
2018-06-28T08:11:44.002Z,9028.00
2018-06-28T08:12:44.002Z,9168.00
2018-06-28T08:13:43.996Z,9216.00
2018-06-28T08:14:43.992Z,8912.00
2018-06-28T08:15:43.986Z,8780.00
2018-06-28T08:16:43.984Z,8964.00
2018-06-28T08:17:43.972Z,9076.00
2018-06-28T08:18:43.974Z,9204.00
2018-06-28T08:19:43.963Z,9272.00
2018-06-28T08:20:43.966Z,9240.00
2018-06-28T08:21:43.959Z,9196.00
2018-06-28T08:22:43.946Z,9092.00
2018-06-28T08:23:43.947Z,8968.00
2018-06-28T08:24:43.941Z,8864.00
2018-06-28T08:25:43.941Z,8764.00
2018-06-28T08:26:43.932Z,8724.00
2018-06-28T08:27:43.924Z,8740.00
2018-06-28T08:28:43.921Z,8784.00
2018-06-28T08:29:43.918Z,8808.00
2018-06-28T08:30:43.912Z,8828.00
2018-06-28T08:31:43.905Z,8856.00
2018-06-28T08:32:43.899Z,8936.00
2018-06-28T08:33:43.899Z,9068.00
2018-06-28T08:34:43.893Z,9168.00
2018-06-28T08:35:43.897Z,9408.00
2018-06-28T08:36:43.886Z,9528.00
2018-06-28T08:37:43.877Z,9596.00
2018-06-28T08:38:43.874Z,9728.00
2018-06-28T08:39:43.870Z,9904.00
2018-06-28T08:40:43.865Z,10076.00
2018-06-28T08:41:43.868Z,10324.00
2018-06-28T08:42:43.862Z,10312.00
2018-06-28T08:43:43.860Z,10460.00
2018-06-28T08:44:43.855Z,10628.00
2018-06-28T08:45:43.842Z,10720.00
2018-06-28T08:46:43.839Z,11428.00
2018-06-28T08:47:43.839Z,12444.00
2018-06-28T08:48:43.829Z,12716.00
2018-06-28T08:49:43.826Z,12544.00
2018-06-28T08:50:43.820Z,13076.00
2018-06-28T08:51:43.820Z,14020.00
2018-06-28T08:52:43.813Z,14764.00
2018-06-28T08:53:43.816Z,14588.00
2018-06-28T08:54:43.800Z,14528.00
2018-06-28T08:55:43.800Z,14948.00
2018-06-28T08:56:43.794Z,15164.00
2018-06-28T08:57:43.902Z,15044.00
2018-06-28T08:58:43.791Z,15332.00
2018-06-28T08:59:43.791Z,15684.00
2018-06-28T09:00:43.775Z,16024.00
2018-06-28T09:01:43.772Z,16720.00
2018-06-28T09:02:43.766Z,17304.00
2018-06-28T09:03:43.765Z,16800.00
2018-06-28T09:04:43.759Z,11456.00
2018-06-28T09:05:43.808Z,11780.00
2018-06-28T09:06:43.756Z,13480.00
2018-06-28T09:07:43.749Z,13884.00
2018-06-28T09:08:43.740Z,24480.00
2018-06-28T09:09:43.743Z,16660.00
2018-06-28T09:10:43.730Z,27872.00
2018-06-28T09:11:43.730Z,19872.00
2018-06-28T09:12:43.723Z,13584.00
2018-06-28T09:13:43.720Z,11708.00
2018-06-28T09:14:43.714Z,9548.00
2018-06-28T09:15:43.706Z,9972.00
2018-06-28T09:16:43.702Z,8928.00
2018-06-28T09:17:43.695Z,8816.00
2018-06-28T09:18:43.686Z,8684.00
2018-06-28T09:19:43.680Z,7888.00
2018-06-28T09:20:43.680Z,8348.00
2018-06-28T09:21:43.670Z,81376.00
2018-06-28T09:22:43.703Z,104672.00
2018-06-28T09:23:43.657Z,106144.00
2018-06-28T09:24:43.664Z,106368.00
2018-06-28T09:25:43.648Z,103520.00
2018-06-28T09:26:43.641Z,101440.00
2018-06-28T09:27:43.644Z,103776.00
2018-06-28T09:28:43.629Z,91136.00
2018-06-28T09:29:43.622Z,76928.00
2018-06-28T09:30:43.624Z,93984.00
2018-06-28T09:31:43.619Z,100704.00
2018-06-28T09:32:43.610Z,104896.00
2018-06-28T09:33:43.600Z,104256.00
2018-06-28T09:34:43.596Z,100928.00
2018-06-28T09:35:43.596Z,103712.00
2018-06-28T09:36:43.584Z,95904.00
2018-06-28T09:37:43.581Z,89152.00
2018-06-28T09:38:43.581Z,37888.00
2018-06-28T09:39:43.571Z,16116.00
2018-06-28T09:40:43.566Z,11076.00
2018-06-28T09:41:43.565Z,8816.00
2018-06-28T09:42:43.562Z,8408.00
2018-06-28T09:43:43.549Z,9848.00
2018-06-28T09:44:43.545Z,117472.00
2018-06-28T09:45:43.539Z,115200.00
2018-06-28T09:46:43.531Z,113536.00
2018-06-28T09:47:43.526Z,117024.00
2018-06-28T09:48:43.529Z,118112.00
2018-06-28T09:49:43.517Z,115616.00
2018-06-28T09:50:43.511Z,117632.00
2018-06-28T09:51:43.514Z,87488.00
2018-06-28T09:52:43.515Z,117472.00
2018-06-28T09:53:43.498Z,116032.00
2018-06-28T09:54:43.555Z,17556.00
2018-06-28T09:55:43.485Z,89696.00
2018-06-28T09:56:43.485Z,54752.00
2018-06-28T09:57:43.481Z,88864.00
2018-06-28T09:58:43.474Z,110560.00
2018-06-28T09:59:43.471Z,120288.00
2018-06-28T10:00:43.462Z,117408.00
2018-06-28T10:01:43.460Z,115232.00
2018-06-28T10:02:43.454Z,74624.00
2018-06-28T10:03:43.449Z,17676.00
2018-06-28T10:04:43.446Z,115584.00
2018-06-28T10:05:43.446Z,117376.00
2018-06-28T10:06:43.485Z,118400.00
2018-06-28T10:07:43.442Z,22048.00
2018-06-28T10:08:43.433Z,27968.00
2018-06-28T10:09:43.424Z,20640.00
2018-06-28T10:10:43.423Z,41824.00
2018-06-28T10:11:43.423Z,123680.00
2018-06-28T10:12:43.414Z,121696.00
2018-06-28T10:13:43.407Z,125312.00
2018-06-28T10:14:43.419Z,104128.00
2018-06-28T10:15:43.407Z,26464.00
2018-06-28T10:16:43.397Z,16932.00
2018-06-28T10:17:43.395Z,12276.00
2018-06-28T10:18:43.397Z,9588.00
2018-06-28T10:19:43.394Z,7804.00
2018-06-28T10:20:43.385Z,7084.00
2018-06-28T10:21:43.378Z,6572.00
2018-06-28T10:22:43.376Z,6088.00
2018-06-28T10:23:43.375Z,5580.00
2018-06-28T10:24:43.456Z,5184.00
2018-06-28T10:25:43.371Z,4992.00
2018-06-28T10:26:43.359Z,5104.00
2018-06-28T10:27:43.353Z,5320.00
2018-06-28T10:28:43.351Z,6936.00
2018-06-28T10:29:43.343Z,9812.00
2018-06-28T10:30:43.346Z,12024.00
2018-06-28T10:31:43.340Z,12904.00
2018-06-28T10:32:43.343Z,19680.00
2018-06-28T10:33:43.321Z,19168.00
2018-06-28T10:34:43.318Z,16864.00
2018-06-28T10:35:43.317Z,21056.00
2018-06-28T10:36:43.311Z,28896.00
2018-06-28T10:37:43.305Z,15956.00
2018-06-28T10:38:43.301Z,12668.00
2018-06-28T10:39:43.288Z,12204.00
2018-06-28T10:40:43.289Z,15336.00
2018-06-28T10:41:43.280Z,125056.00
2018-06-28T10:42:43.277Z,121024.00
2018-06-28T10:43:43.267Z,120192.00
2018-06-28T10:44:43.268Z,118240.00
2018-06-28T10:45:43.258Z,107744.00
2018-06-28T10:46:43.257Z,116704.00
2018-06-28T10:47:43.245Z,16956.00
2018-06-28T10:48:43.242Z,17680.00
2018-06-28T10:49:43.239Z,19456.00
2018-06-28T10:50:43.243Z,21536.00
2018-06-28T10:51:43.232Z,45760.00
2018-06-28T10:52:43.229Z,22496.00
2018-06-28T10:53:43.223Z,124064.00
2018-06-28T10:54:43.221Z,125216.00
2018-06-28T10:55:43.219Z,119392.00
2018-06-28T10:56:43.211Z,120608.00
2018-06-28T10:57:43.213Z,121248.00
2018-06-28T10:58:43.203Z,126784.00
2018-06-28T10:59:43.201Z,130080.00
2018-06-28T11:00:43.206Z,121312.00
2018-06-28T11:01:43.254Z,27008.00
2018-06-28T11:02:43.200Z,94080.00
2018-06-28T11:03:43.194Z,36192.00
2018-06-28T11:04:43.197Z,56384.00
2018-06-28T11:05:43.190Z,82528.00
2018-06-28T11:06:43.189Z,137632.00
2018-06-28T11:07:43.194Z,63424.00
2018-06-28T11:08:43.188Z,110304.00
2018-06-28T11:09:43.199Z,50336.00
2018-06-28T11:10:43.184Z,73184.00
2018-06-28T11:11:43.187Z,55648.00
2018-06-28T11:12:43.191Z,43712.00
2018-06-28T11:13:43.185Z,32032.00
2018-06-28T11:14:43.189Z,27840.00
2018-06-28T11:15:43.234Z,21056.00
2018-06-28T11:16:43.180Z,23552.00
2018-06-28T11:17:43.182Z,23104.00
2018-06-28T11:18:43.187Z,26560.00
2018-06-28T11:19:43.175Z,65024.00
2018-06-28T11:20:43.185Z,46144.00
2018-06-28T11:21:43.177Z,27936.00
2018-06-28T11:22:43.175Z,31136.00
2018-06-28T11:23:43.165Z,56864.00
2018-06-28T11:24:43.162Z,61344.00
2018-06-28T11:25:43.169Z,49472.00
2018-06-28T11:26:43.187Z,41568.00
2018-06-28T11:27:43.155Z,72448.00
2018-06-28T11:28:43.159Z,30816.00
2018-06-28T11:29:43.156Z,24032.00
2018-06-28T11:30:43.159Z,21376.00
2018-06-28T11:31:43.146Z,20128.00
2018-06-28T11:32:43.143Z,20224.00
2018-06-28T11:33:43.151Z,30144.00
2018-06-28T11:34:43.143Z,19264.00
2018-06-28T11:35:43.144Z,19168.00
2018-06-28T11:36:43.133Z,21376.00
2018-06-28T11:37:43.133Z,24224.00
2018-06-28T11:38:43.138Z,26816.00
2018-06-28T11:39:43.123Z,26560.00
2018-06-28T11:40:43.120Z,25824.00
2018-06-28T11:41:43.117Z,28416.00
2018-06-28T11:42:43.111Z,39168.00
2018-06-28T11:43:43.118Z,46176.00
2018-06-28T11:44:43.109Z,51168.00
2018-06-28T11:45:43.104Z,54304.00
2018-06-28T11:46:43.102Z,34368.00
2018-06-28T11:47:43.094Z,34816.00
2018-06-28T11:48:43.091Z,41312.00
2018-06-28T11:49:43.090Z,81376.00
2018-06-28T11:50:43.085Z,84064.00
2018-06-28T11:51:43.085Z,118080.00
2018-06-28T11:52:43.078Z,68480.00
2018-06-28T11:53:43.079Z,45984.00
2018-06-28T11:54:43.075Z,37856.00
2018-06-28T11:55:43.071Z,35840.00
2018-06-28T11:56:43.075Z,31264.00
2018-06-28T11:57:43.068Z,29568.00
2018-06-28T11:58:43.072Z,33312.00
2018-06-28T11:59:43.075Z,37024.00
2018-06-28T12:00:43.068Z,28384.00
2018-06-28T12:01:43.065Z,25312.00
2018-06-28T12:02:43.060Z,25312.00
2018-06-28T12:03:43.062Z,25728.00
2018-06-28T12:04:43.064Z,27808.00
2018-06-28T12:05:43.059Z,31328.00
2018-06-28T12:06:43.054Z,75776.00
2018-06-28T12:07:43.063Z,62688.00
2018-06-28T12:08:43.046Z,122624.00
2018-06-28T12:09:43.043Z,82464.00
2018-06-28T12:10:43.038Z,52512.00
2018-06-28T12:11:43.036Z,141280.00
2018-06-28T12:12:43.042Z,92864.00
2018-06-28T12:13:43.034Z,57120.00
2018-06-28T12:14:43.040Z,62784.00
2018-06-28T12:15:43.033Z,63584.00
2018-06-28T12:16:43.044Z,62336.00